createdAt,value
2023-04-15T00:06:22.008Z,3.234
2023-04-15T00:22:04.065Z,3.234
2023-04-15T00:37:46.648Z,3.234
2023-04-15T00:53:29.608Z,3.232
2023-04-15T01:09:11.745Z,3.232
2023-04-15T01:24:54.701Z,3.232
2023-04-15T01:40:37.569Z,3.232
2023-04-15T01:56:20.304Z,3.231
2023-04-15T02:12:03.356Z,3.232
2023-04-15T02:27:46.201Z,3.232
2023-04-15T02:43:29.221Z,3.231
2023-04-15T02:59:12.197Z,3.231
2023-04-15T03:14:55.198Z,3.232
2023-04-15T03:30:37.636Z,3.231
2023-04-15T03:46:20.099Z,3.232
2023-04-15T04:02:02.496Z,3.232
2023-04-15T04:17:45.547Z,3.232
2023-04-15T04:33:27.908Z,3.232
2023-04-15T04:49:10.797Z,3.231
2023-04-15T05:04:53.299Z,3.232
2023-04-15T05:20:36.277Z,3.231
2023-04-15T05:36:18.749Z,3.232
2023-04-15T06:23:27.189Z,3.242
2023-04-15T06:54:51.797Z,3.257
2023-04-15T07:10:34.571Z,3.265
2023-04-15T07:26:24.403Z,3.253
2023-04-15T07:42:07.312Z,3.246
2023-04-15T07:57:42.586Z,3.247
2023-04-15T07:58:29.904Z,3.242
2023-04-15T08:14:12.874Z,3.25
2023-04-15T08:29:55.780Z,3.254
2023-04-15T08:45:38.292Z,3.257
2023-04-15T09:01:20.844Z,3.275
2023-04-15T09:17:03.293Z,3.332
2023-04-15T09:32:46.205Z,3.324
2023-04-15T09:48:29.057Z,3.297
2023-04-15T10:04:11.696Z,3.286
2023-04-15T10:19:54.445Z,3.279
2023-04-15T10:35:36.848Z,3.274
2023-04-15T10:51:19.221Z,3.268
2023-04-15T11:07:02.076Z,3.265
2023-04-15T11:22:44.342Z,3.279
2023-04-15T11:38:26.761Z,3.294
2023-04-15T11:54:09.768Z,3.337
2023-04-15T12:09:52.821Z,3.339
2023-04-15T12:25:35.179Z,3.329
2023-04-15T12:41:17.635Z,3.317
2023-04-15T12:57:00.354Z,3.296
2023-04-15T13:12:42.533Z,3.286
2023-04-15T13:28:24.938Z,3.281
2023-04-15T13:44:07.830Z,3.275
2023-04-15T13:59:50.859Z,3.27
2023-04-15T14:15:33.524Z,3.265
2023-04-15T14:31:16.309Z,3.261
2023-04-15T14:46:59.312Z,3.293
2023-04-15T15:02:42.185Z,3.341
2023-04-15T15:18:25.001Z,3.324
2023-04-15T15:34:08.036Z,3.301
2023-04-15T15:49:50.524Z,3.294
2023-04-15T16:05:32.778Z,3.286
2023-04-15T16:21:14.924Z,3.281
2023-04-15T16:36:57.370Z,3.275
2023-04-15T16:52:39.659Z,3.27
2023-04-15T17:08:22.408Z,3.265
2023-04-15T17:24:04.638Z,3.261
2023-04-15T17:39:46.994Z,3.259
2023-04-15T17:55:29.535Z,3.254
2023-04-15T18:11:11.835Z,3.252
2023-04-15T18:26:54.234Z,3.249
2023-04-15T18:42:36.813Z,3.247
2023-04-15T18:58:19.751Z,3.245
2023-04-15T19:14:02.170Z,3.245
2023-04-15T19:29:45.001Z,3.243
2023-04-15T19:45:27.737Z,3.242
2023-04-15T20:01:09.968Z,3.245
2023-04-15T20:16:52.706Z,3.239
2023-04-15T20:32:34.971Z,3.241
2023-04-15T20:48:17.183Z,3.239
2023-04-15T21:03:59.449Z,3.238
2023-04-15T21:19:41.712Z,3.238
2023-04-15T21:35:24.461Z,3.238
2023-04-15T21:51:06.676Z,3.241
2023-04-15T22:06:49.363Z,3.236
2023-04-15T22:22:31.744Z,3.236
2023-04-15T22:38:14.674Z,3.236
2023-04-15T22:53:56.998Z,3.235
2023-04-15T23:09:39.500Z,3.235
2023-04-15T23:25:22.375Z,3.235
2023-04-15T23:41:04.576Z,3.235
2023-04-15T23:56:47.489Z,3.235
